Jacinto, Nebraska
Current Conditions -  °F | °C
As of 3:55 AM on Monday 20 Oct 2014 (Local Time) from KIBM Reporting Station
Clear Clear  
Wind Chill: 33°   Ceiling: Unl
Heat Index: 37°   Visibility: 10mi
Dew Point: 32°   Wind: 5mph
Humidity: 83%   Direction: 290°WNW
Pressure: 30.13"   Gusts: NA
Location:  41.202°N, 103.47°W
Report Text: KIBM 200955Z AUTO 29004KT 10SM CLR 03/00 A3013 RMK AO2 T00280002
Loading
Personal Weather Stations






























Interactive Weather Map
Tropical Storm Tracking
New forecast layout! Learn more

10-Day Weather Forecast

Advertisements
Track Severe Weather on mobile